Time;durP1;ratioP1;P1;durP2;ratioP2;P2;SDS_P1;SDS_P2;PMS_P1;PMS_P2;Temp;Humidity;BMP_temperature;BMP_pressure;BME280_temperature;BME280_humidity;BME280_pressure;Samples;Min_cycle;Max_cycle;Signal;HPM_P1;HPM_P2
2022/08/27 00:01:25;;;;;;;6.80;2.20;;;14.40;99.90;;;;;;5037227;28;20548;-68
2022/08/27 00:03:55;;;;;;;6.03;2.30;;;14.30;99.90;;;;;;5036742;28;20045;-68
2022/08/27 00:06:21;;;;;;;6.68;2.67;;;14.20;99.90;;;;;;5028162;28;20049;-68
2022/08/27 00:08:48;;;;;;;6.18;2.88;;;14.20;99.90;;;;;;5035476;28;20052;-68
2022/08/27 00:11:14;;;;;;;6.72;2.88;;;14.20;99.90;;;;;;5038896;28;20940;-68
2022/08/27 00:13:40;;;;;;;9.60;3.20;;;14.10;99.90;;;;;;5043284;28;20056;-68
2022/08/27 00:16:08;;;;;;;5.55;2.60;;;14.10;99.90;;;;;;5039952;28;20481;-69
2022/08/27 00:18:35;;;;;;;7.78;3.03;;;14.00;99.90;;;;;;5029630;28;20052;-68
2022/08/27 00:21:01;;;;;;;6.70;3.00;;;14.10;99.90;;;;;;5041474;28;20034;-69
2022/08/27 00:23:27;;;;;;;9.43;2.80;;;14.10;99.90;;;;;;5037083;28;20041;-68
2022/08/27 00:25:53;;;;;;;5.60;2.45;;;14.10;99.90;;;;;;5039510;28;20155;-68
2022/08/27 00:28:19;;;;;;;7.20;2.58;;;14.10;99.90;;;;;;5025467;28;20095;-68
2022/08/27 00:30:45;;;;;;;5.68;2.67;;;14.10;99.90;;;;;;5041487;28;20106;-68
2022/08/27 00:33:11;;;;;;;7.50;2.67;;;14.10;99.90;;;;;;5042035;28;20069;-68
2022/08/27 00:35:38;;;;;;;6.30;2.30;;;14.10;99.90;;;;;;5040558;28;20137;-68
2022/08/27 00:38:05;;;;;;;8.77;2.58;;;14.10;99.90;;;;;;5023152;28;20045;-68
2022/08/27 00:40:32;;;;;;;6.75;2.45;;;14.10;99.90;;;;;;5039452;28;20041;-68
2022/08/27 00:43:02;;;;;;;8.57;2.60;;;14.00;99.90;;;;;;5039738;28;20049;-68
2022/08/27 00:45:31;;;;;;;5.68;2.60;;;14.10;99.90;;;;;;5042086;28;20080;-68
2022/08/27 00:47:59;;;;;;;5.07;2.20;;;14.10;99.90;;;;;;5025171;28;20045;-68
2022/08/27 00:50:33;;;;;;;5.32;2.10;;;14.10;99.90;;;;;;5041112;28;20091;-68
2022/08/27 00:53:05;;;;;;;5.63;2.30;;;14.10;99.90;;;;;;5042338;28;20051;-68
2022/08/27 00:55:37;;;;;;;3.85;2.40;;;14.10;99.90;;;;;;5041997;28;20902;-69
2022/08/27 00:58:29;;;;;;;7.88;2.15;;;14.10;99.90;;;;;;5021936;28;20133;-68
2022/08/27 01:00:56;;;;;;;6.53;2.05;;;14.10;99.90;;;;;;5037075;28;20111;-68
2022/08/27 01:03:25;;;;;;;4.82;1.80;;;14.00;99.90;;;;;;5041069;28;20573;-67
2022/08/27 01:05:53;;;;;;;4.07;2.15;;;13.90;99.90;;;;;;5040461;28;20056;-68
2022/08/27 01:08:32;;;;;;;5.38;1.90;;;14.00;99.90;;;;;;5021961;28;20115;-68
2022/08/27 01:10:59;;;;;;;6.53;2.58;;;14.00;99.90;;;;;;5022273;28;20040;-68
2022/08/27 01:13:30;;;;;;;5.43;2.30;;;14.00;99.90;;;;;;5035358;28;20046;-68
2022/08/27 01:15:58;;;;;;;5.40;2.22;;;14.00;99.90;;;;;;5041082;28;20045;-68
2022/08/27 01:18:29;;;;;;;4.93;1.92;;;14.00;99.90;;;;;;5024817;28;20045;-68
2022/08/27 01:20:58;;;;;;;;;;;14.00;99.90;;;;;;5036103;28;20594;-68
2022/08/27 01:23:43;;;;;;;5.88;1.75;;;14.00;99.90;;;;;;5036837;28;19921;-68
2022/08/27 01:26:13;;;;;;;3.30;1.73;;;14.00;99.90;;;;;;5037405;28;20055;-68
2022/08/27 01:28:39;;;;;;;4.75;1.77;;;14.00;99.90;;;;;;5038660;28;20040;-68
2022/08/27 01:31:07;;;;;;;3.63;1.90;;;14.00;99.90;;;;;;5043283;28;20085;-69
2022/08/27 01:33:32;;;;;;;6.47;1.77;;;14.00;99.90;;;;;;5038121;28;20045;-68
2022/08/27 01:35:58;;;;;;;4.35;1.63;;;14.00;99.90;;;;;;5043093;28;20094;-68
2022/08/27 01:38:26;;;;;;;5.80;1.95;;;13.90;99.90;;;;;;5013694;28;20215;-69
2022/08/27 01:40:52;;;;;;;4.20;1.50;;;13.90;99.90;;;;;;5044927;28;20525;-68
2022/08/27 01:43:19;;;;;;;4.15;1.60;;;14.00;99.90;;;;;;5044073;28;20048;-68
2022/08/27 01:45:50;;;;;;;3.30;1.58;;;14.00;99.90;;;;;;5029041;28;20048;-69
2022/08/27 01:48:18;;;;;;;5.03;1.90;;;14.00;99.90;;;;;;5024943;28;20059;-68
2022/08/27 01:50:46;;;;;;;4.57;1.73;;;14.00;99.90;;;;;;5044530;28;20076;-68
2022/08/27 01:53:21;;;;;;;6.72;2.63;;;14.10;99.90;;;;;;5044616;28;20053;-68
2022/08/27 01:55:48;;;;;;;4.95;2.22;;;14.10;99.90;;;;;;5047375;28;20044;-68
2022/08/27 01:58:15;;;;;;;4.03;2.13;;;14.00;99.90;;;;;;5023582;28;20042;-68
2022/08/27 02:00:45;;;;;;;4.55;2.25;;;14.00;99.90;;;;;;5041541;28;20459;-69
2022/08/27 02:03:12;;;;;;;3.95;2.08;;;14.00;99.90;;;;;;5043307;28;20048;-68
2022/08/27 02:05:38;;;;;;;6.63;2.17;;;14.00;99.90;;;;;;5044794;28;20171;-68
2022/08/27 02:08:06;;;;;;;5.45;2.15;;;14.00;99.90;;;;;;5026992;28;20474;-68
2022/08/27 02:10:35;;;;;;;4.53;2.15;;;14.10;99.90;;;;;;5041026;28;20126;-68
2022/08/27 02:13:01;;;;;;;5.43;2.22;;;14.10;99.90;;;;;;5042955;28;20188;-68
2022/08/27 02:15:28;;;;;;;7.03;2.63;;;14.10;99.90;;;;;;5045492;28;20215;-68
2022/08/27 02:17:54;;;;;;;5.82;2.60;;;14.10;99.90;;;;;;5026641;28;20080;-68
2022/08/27 02:20:21;;;;;;;7.63;2.25;;;14.10;99.90;;;;;;5039786;28;20134;-68
2022/08/27 02:22:48;;;;;;;6.88;2.50;;;14.10;99.90;;;;;;5041684;28;20488;-68
2022/08/27 02:25:15;;;;;;;5.72;2.42;;;14.10;99.90;;;;;;5044513;28;20052;-68
2022/08/27 02:27:42;;;;;;;9.35;3.42;;;14.00;99.90;;;;;;5027921;28;20187;-67
2022/08/27 02:30:11;;;;;;;6.95;2.83;;;14.10;99.90;;;;;;5040880;28;20064;-68
2022/08/27 02:32:37;;;;;;;7.05;3.00;;;14.00;99.90;;;;;;5040500;28;20053;-68
2022/08/27 02:35:04;;;;;;;7.30;3.15;;;14.00;99.90;;;;;;5042064;28;20055;-68
2022/08/27 02:37:30;;;;;;;4.00;2.70;;;14.00;99.90;;;;;;5030149;28;20110;-68
2022/08/27 02:39:56;;;;;;;6.32;3.10;;;14.00;99.90;;;;;;5038927;28;20053;-68
2022/08/27 02:42:22;;;;;;;5.22;2.55;;;14.00;99.90;;;;;;5042893;28;20700;-68
2022/08/27 02:44:47;;;;;;;6.82;2.53;;;14.00;99.90;;;;;;5045630;28;20053;-68
2022/08/27 02:47:14;;;;;;;5.90;2.25;;;14.00;99.90;;;;;;5025143;28;20068;-68
2022/08/27 02:49:40;;;;;;;3.50;2.33;;;14.00;99.90;;;;;;5040493;28;20056;-69
2022/08/27 02:52:05;;;;;;;5.13;2.05;;;14.00;99.90;;;;;;5037199;28;20057;-68
2022/08/27 02:54:31;;;;;;;4.22;2.08;;;14.00;99.90;;;;;;5044586;28;20112;-69
2022/08/27 02:56:57;;;;;;;7.30;2.35;;;13.90;99.90;;;;;;5025989;28;20041;-68
2022/08/27 02:59:23;;;;;;;4.65;2.03;;;14.00;99.90;;;;;;5040186;28;20033;-69
2022/08/27 03:01:49;;;;;;;4.55;2.05;;;14.00;99.90;;;;;;5042741;28;20037;-69
2022/08/27 03:04:15;;;;;;;7.57;1.80;;;14.00;99.90;;;;;;5027033;28;20043;-69
2022/08/27 03:06:41;;;;;;;4.70;1.70;;;14.00;99.90;;;;;;5030434;28;20116;-69
2022/08/27 03:09:09;;;;;;;5.68;2.00;;;14.00;99.90;;;;;;5040291;28;20810;-68
2022/08/27 03:11:34;;;;;;;5.45;2.20;;;14.00;99.90;;;;;;5024156;28;20041;-68
2022/08/27 03:14:00;;;;;;;5.07;2.03;;;14.00;99.90;;;;;;5042135;28;20052;-69
2022/08/27 03:16:26;;;;;;;6.10;2.15;;;14.00;99.90;;;;;;5031430;28;21043;-69
2022/08/27 03:18:52;;;;;;;5.50;1.58;;;13.90;99.90;;;;;;5033415;28;20074;-68
2022/08/27 03:21:21;;;;;;;6.30;2.10;;;13.90;99.90;;;;;;5040113;28;20079;-69
2022/08/27 03:23:47;;;;;;;5.35;1.95;;;13.90;99.90;;;;;;5040472;28;20136;-68
2022/08/27 03:26:13;;;;;;;4.78;1.98;;;13.90;99.90;;;;;;5033717;28;20476;-70
2022/08/27 03:28:39;;;;;;;5.40;2.33;;;13.80;99.90;;;;;;5031507;28;20045;-69
2022/08/27 03:31:12;;;;;;;7.03;2.08;;;13.70;99.90;;;;;;5039647;28;20099;-69
2022/08/27 03:33:38;;;;;;;5.53;2.08;;;13.70;99.90;;;;;;5038722;28;20155;-69
2022/08/27 03:36:08;;;;;;;6.90;2.40;;;13.70;99.90;;;;;;5043498;28;20049;-68
2022/08/27 03:38:35;;;;;;;5.55;2.13;;;13.80;99.90;;;;;;5031425;28;20045;-69
2022/08/27 03:41:05;;;;;;;6.93;2.00;;;13.60;99.90;;;;;;5037551;28;20131;-68
2022/08/27 03:43:31;;;;;;;7.72;1.95;;;13.60;99.90;;;;;;5042998;28;20063;-68
2022/08/27 03:45:57;;;;;;;5.47;2.03;;;13.50;99.90;;;;;;5041175;28;20063;-67
2022/08/27 03:48:22;;;;;;;5.50;1.85;;;13.50;99.90;;;;;;5021865;28;20041;-68
2022/08/27 03:50:49;;;;;;;4.40;1.67;;;13.50;99.90;;;;;;5039200;28;20127;-68
2022/08/27 03:53:19;;;;;;;4.57;1.95;;;13.40;99.90;;;;;;5038085;28;20472;-68
2022/08/27 03:55:45;;;;;;;4.28;1.90;;;13.40;99.90;;;;;;5025257;28;20055;-68
2022/08/27 03:58:11;;;;;;;4.72;1.70;;;13.40;99.90;;;;;;5021987;28;20523;-68
2022/08/27 04:00:39;;;;;;;4.97;2.00;;;13.40;99.90;;;;;;5037439;28;20045;-68
2022/08/27 04:03:06;;;;;;;4.97;1.92;;;13.30;99.90;;;;;;5035926;28;20038;-69
2022/08/27 04:05:33;;;;;;;5.10;2.00;;;13.30;99.90;;;;;;5042407;28;20571;-69
2022/08/27 04:07:59;;;;;;;3.42;1.83;;;13.30;99.90;;;;;;5024244;28;20056;-68
2022/08/27 04:10:26;;;;;;;4.20;1.90;;;13.30;99.90;;;;;;5039067;28;20045;-67
2022/08/27 04:12:52;;;;;;;7.68;2.30;;;13.30;99.90;;;;;;5037876;28;20044;-68
2022/08/27 04:15:18;;;;;;;3.45;1.90;;;13.20;99.90;;;;;;5027655;28;20087;-68
2022/08/27 04:17:44;;;;;;;4.70;1.60;;;13.20;99.90;;;;;;5023844;28;20053;-69
2022/08/27 04:20:11;;;;;;;4.72;1.65;;;13.20;99.90;;;;;;5041401;28;20092;-68
2022/08/27 04:22:38;;;;;;;5.35;2.10;;;13.30;99.90;;;;;;5037734;28;20053;-68
2022/08/27 04:25:04;;;;;;;3.15;1.60;;;13.20;99.90;;;;;;5042373;28;20049;-68
2022/08/27 04:27:30;;;;;;;5.22;1.85;;;13.10;99.90;;;;;;5021870;28;20072;-68
2022/08/27 04:29:58;;;;;;;5.05;1.60;;;13.10;99.90;;;;;;5040708;28;20646;-68
2022/08/27 04:32:25;;;;;;;4.95;1.50;;;13.10;99.90;;;;;;5039543;28;20499;-69
2022/08/27 04:34:58;;;;;;;4.70;1.90;;;13.10;99.90;;;;;;5041033;28;20457;-68
2022/08/27 04:37:28;;;;;;;2.83;1.60;;;13.10;99.90;;;;;;5022385;28;20133;-68
2022/08/27 04:39:54;;;;;;;4.05;1.40;;;13.10;99.90;;;;;;5038005;28;20041;-68
2022/08/27 04:42:20;;;;;;;3.20;1.25;;;13.10;99.90;;;;;;5036374;28;20128;-68
2022/08/27 04:44:46;;;;;;;4.22;1.55;;;13.20;99.90;;;;;;5039885;28;20111;-68
2022/08/27 04:47:13;;;;;;;8.07;2.10;;;13.20;99.90;;;;;;5025627;28;20057;-68
2022/08/27 04:49:40;;;;;;;4.15;1.65;;;13.30;99.90;;;;;;5039087;28;20049;-68
2022/08/27 04:52:05;;;;;;;5.88;1.58;;;13.30;99.90;;;;;;5037943;28;20052;-68
2022/08/27 04:54:32;;;;;;;3.30;1.15;;;13.40;99.90;;;;;;5038490;28;20504;-69
2022/08/27 04:56:58;;;;;;;2.78;1.20;;;13.40;99.90;;;;;;5028234;28;20069;-68
2022/08/27 04:59:24;;;;;;;4.80;1.20;;;13.50;99.90;;;;;;5037481;28;20083;-69
2022/08/27 05:01:49;;;;;;;5.20;1.40;;;13.40;99.90;;;;;;5039439;28;20044;-68
2022/08/27 05:04:17;;;;;;;4.57;1.42;;;13.60;99.90;;;;;;5042438;28;20345;-68
2022/08/27 05:06:44;;;;;;;5.03;1.45;;;13.60;99.90;;;;;;5030038;28;20442;-70
2022/08/27 05:09:17;;;;;;;4.45;1.25;;;13.70;99.90;;;;;;5040643;28;20701;-69
2022/08/27 05:11:43;;;;;;;4.45;1.33;;;13.70;99.90;;;;;;5045475;28;20124;-69
2022/08/27 05:14:11;;;;;;;4.63;1.40;;;13.80;99.90;;;;;;5042921;28;20051;-68
2022/08/27 05:16:37;;;;;;;5.32;1.35;;;13.80;99.90;;;;;;5032022;28;20162;-69
2022/08/27 05:19:08;;;;;;;3.75;1.50;;;13.90;99.90;;;;;;5024080;28;20554;-68
2022/08/27 05:21:37;;;;;;;7.63;2.03;;;14.00;99.90;;;;;;5046574;28;20055;-69
2022/08/27 05:24:05;;;;;;;5.13;1.52;;;14.00;99.90;;;;;;5041488;28;20037;-69
2022/08/27 05:26:33;;;;;;;8.18;1.98;;;14.10;99.90;;;;;;5031710;28;20048;-69
2022/08/27 05:28:59;;;;;;;4.70;1.60;;;14.20;99.90;;;;;;5039501;28;20415;-68
2022/08/27 05:31:27;;;;;;;6.43;1.40;;;14.20;99.90;;;;;;5043020;28;20051;-68
2022/08/27 05:33:55;;;;;;;4.55;1.50;;;14.30;99.90;;;;;;5041759;28;20089;-69
2022/08/27 05:36:29;;;;;;;5.05;1.65;;;14.40;99.90;;;;;;5016756;28;20051;-69
2022/08/27 05:38:57;;;;;;;5.78;1.70;;;14.40;99.90;;;;;;5039760;28;20546;-69
2022/08/27 05:41:26;;;;;;;5.55;1.48;;;14.50;99.90;;;;;;5041395;28;20051;-69
2022/08/27 05:43:54;;;;;;;8.45;2.13;;;14.60;99.90;;;;;;5040284;28;20155;-69
2022/08/27 05:46:22;;;;;;;2.33;1.30;;;14.60;99.90;;;;;;5032877;28;20080;-69
2022/08/27 05:48:49;;;;;;;3.95;1.48;;;14.60;99.90;;;;;;5039798;28;20083;-68
2022/08/27 05:51:21;;;;;;;4.45;1.42;;;14.60;99.90;;;;;;5046265;28;20037;-69
2022/08/27 05:53:47;;;;;;;3.65;1.52;;;14.60;99.90;;;;;;5046443;28;20037;-68
2022/08/27 05:56:14;;;;;;;6.30;1.60;;;14.60;99.90;;;;;;5035179;28;20536;-70
2022/08/27 06:01:25;;;;;;;4.22;1.70;;;14.70;99.90;;;;;;5041715;28;20162;-68
2022/08/27 06:03:51;;;;;;;5.95;1.75;;;14.70;99.90;;;;;;5042264;28;20037;-69
2022/08/27 06:06:18;;;;;;;6.13;1.77;;;14.80;99.90;;;;;;5033283;28;20041;-70
2022/08/27 06:08:43;;;;;;;5.53;1.60;;;14.80;99.90;;;;;;5036479;28;20045;-69
2022/08/27 06:11:10;;;;;;;4.68;1.65;;;14.90;99.90;;;;;;5042365;28;20047;-69
2022/08/27 06:13:36;;;;;;;6.57;1.92;;;15.00;99.90;;;;;;5039131;28;20049;-69
2022/08/27 06:16:08;;;;;;;3.85;1.60;;;15.00;99.90;;;;;;5042908;28;20200;-69
2022/08/27 06:18:37;;;;;;;5.75;1.35;;;15.10;99.90;;;;;;5033505;28;20056;-68
2022/08/27 06:21:03;;;;;;;6.72;1.45;;;15.20;99.90;;;;;;5042920;28;20112;-69
2022/08/27 06:23:29;;;;;;;3.78;1.50;;;15.30;99.90;;;;;;5038511;28;20048;-69
2022/08/27 06:25:56;;;;;;;2.78;1.50;;;15.40;99.90;;;;;;5044143;28;20041;-69
2022/08/27 06:28:23;;;;;;;5.97;1.58;;;15.40;99.90;;;;;;5028862;28;20136;-69
2022/08/27 06:30:50;;;;;;;4.47;1.65;;;15.50;99.90;;;;;;5045361;28;20037;-69
2022/08/27 06:33:16;;;;;;;4.68;1.60;;;15.60;99.90;;;;;;5043272;28;20055;-69
2022/08/27 06:35:41;;;;;;;3.00;1.55;;;15.70;99.90;;;;;;5036065;28;20480;-70
2022/08/27 06:38:07;;;;;;;4.38;1.70;;;15.80;99.90;;;;;;5008795;28;20079;-70
2022/08/27 06:40:33;;;;;;;8.23;1.95;;;15.80;99.90;;;;;;5043651;28;20099;-70
2022/08/27 06:42:59;;;;;;;8.10;1.60;;;15.90;99.90;;;;;;5026274;28;20456;-69
2022/08/27 06:45:25;;;;;;;3.00;1.13;;;16.00;99.90;;;;;;5041142;28;20404;-71
2022/08/27 06:47:52;;;;;;;6.82;1.50;;;16.10;99.90;;;;;;5028972;28;20040;-69
2022/08/27 06:50:19;;;;;;;7.30;1.55;;;16.30;99.90;;;;;;5046830;28;20182;-70
2022/08/27 06:52:45;;;;;;;5.07;1.38;;;16.30;99.90;;;;;;5039412;28;20132;-69
2022/08/27 06:55:11;;;;;;;7.88;1.42;;;16.40;99.90;;;;;;5039668;28;20416;-71
2022/08/27 06:57:37;;;;;;;5.18;1.50;;;16.50;99.90;;;;;;5026216;28;20037;-69
2022/08/27 07:00:05;;;;;;;5.68;1.30;;;16.60;99.90;;;;;;5044371;28;20036;-70
2022/08/27 07:02:31;;;;;;;5.70;1.20;;;16.60;99.90;;;;;;5041318;28;20048;-69
2022/08/27 07:04:56;;;;;;;6.88;1.90;;;16.70;99.90;;;;;;5041455;28;20053;-69
2022/08/27 07:07:22;;;;;;;5.18;1.73;;;16.80;99.90;;;;;;5007872;28;20519;-69
2022/08/27 07:09:48;;;;;;;5.70;1.50;;;16.90;99.90;;;;;;5041775;28;20502;-70
2022/08/27 07:12:14;;;;;;;5.40;1.30;;;17.00;99.90;;;;;;5045211;28;20151;-69
2022/08/27 07:14:41;;;;;;;7.03;1.58;;;17.10;99.90;;;;;;5043712;28;20523;-69
2022/08/27 07:17:08;;;;;;;7.88;1.75;;;17.20;99.90;;;;;;5024753;28;20064;-69
2022/08/27 07:19:37;;;;;;;7.45;1.63;;;17.30;99.90;;;;;;5043385;28;20068;-70
2022/08/27 07:22:03;;;;;;;7.68;1.70;;;17.40;99.90;;;;;;5036293;28;20060;-69
2022/08/27 07:24:29;;;;;;;6.75;1.45;;;17.50;99.90;;;;;;5039286;28;20045;-71
2022/08/27 07:26:55;;;;;;;7.03;1.65;;;17.60;99.90;;;;;;5025870;28;20450;-69
2022/08/27 07:29:20;;;;;;;3.78;1.20;;;17.80;99.90;;;;;;5036944;28;20568;-72
2022/08/27 07:31:46;;;;;;;4.07;1.30;;;17.90;99.90;;;;;;5038043;28;20069;-70
2022/08/27 07:34:12;;;;;;;5.80;1.10;;;18.00;99.90;;;;;;5039028;28;20074;-71
2022/08/27 07:36:39;;;;;;;5.20;1.05;;;18.00;99.90;;;;;;5026873;28;20052;-70
2022/08/27 07:39:06;;;;;;;5.55;1.10;;;18.10;99.90;;;;;;5040515;28;20603;-70
2022/08/27 07:44:23;;;;;;;6.45;1.27;;;18.10;99.90;;;;;;5045995;28;20094;-70
2022/08/27 07:44:26;;;;;;;5.30;1.23;;;18.20;99.90;;;;;;5038147;28;20048;-70
2022/08/27 07:46:54;;;;;;;6.60;0.90;;;18.20;99.90;;;;;;5027863;28;20097;-70
2022/08/27 07:49:21;;;;;;;7.35;1.30;;;18.20;99.90;;;;;;5038155;28;20081;-70
2022/08/27 07:51:47;;;;;;;7.20;1.05;;;18.30;99.90;;;;;;5041810;28;20123;-70
2022/08/27 07:54:14;;;;;;;7.18;1.38;;;18.30;99.90;;;;;;5038864;28;20501;-70
2022/08/27 07:56:39;;;;;;;11.27;1.58;;;18.30;99.90;;;;;;5029151;28;20581;-69
2022/08/27 07:59:07;;;;;;;5.00;1.20;;;18.30;99.90;;;;;;5042923;28;20071;-70
2022/08/27 08:01:32;;;;;;;4.95;0.90;;;18.30;99.90;;;;;;5042765;28;20046;-70
2022/08/27 08:03:58;;;;;;;7.47;1.20;;;18.30;99.90;;;;;;5041684;28;20106;-69
2022/08/27 08:06:24;;;;;;;7.32;1.13;;;18.30;99.90;;;;;;5011563;28;20046;-70
2022/08/27 08:08:50;;;;;;;3.72;1.00;;;18.30;99.90;;;;;;5035376;28;20052;-69
2022/08/27 08:11:17;;;;;;;7.57;1.15;;;18.40;99.90;;;;;;5023098;28;20593;-69
2022/08/27 08:13:44;;;;;;;5.75;1.13;;;18.50;99.90;;;;;;5041572;28;20423;-69
2022/08/27 08:16:11;;;;;;;5.25;1.38;;;18.50;99.90;;;;;;5034942;28;20049;-70
2022/08/27 08:18:37;;;;;;;9.32;1.33;;;18.60;99.90;;;;;;5032425;28;20041;-69
2022/08/27 08:21:06;;;;;;;6.82;1.08;;;18.50;99.90;;;;;;5039792;28;20061;-69
2022/08/27 08:23:32;;;;;;;6.10;1.10;;;18.50;99.90;;;;;;5038700;28;20133;-69
2022/08/27 08:25:58;;;;;;;8.18;1.48;;;18.60;99.90;;;;;;5038966;28;20094;-69
2022/08/27 08:28:24;;;;;;;6.75;1.05;;;18.70;99.90;;;;;;5021761;28;20132;-69
2022/08/27 08:30:51;;;;;;;6.35;1.00;;;18.80;99.90;;;;;;5041494;28;20489;-71
2022/08/27 08:33:17;;;;;;;5.10;1.05;;;18.80;99.90;;;;;;5039801;28;20045;-71
2022/08/27 08:35:43;;;;;;;5.55;1.23;;;19.00;99.90;;;;;;5041622;28;20029;-69
2022/08/27 08:38:09;;;;;;;5.28;0.82;;;18.90;99.90;;;;;;5022810;28;20045;-69
2022/08/27 08:40:44;;;;;;;4.88;1.10;;;19.00;99.90;;;;;;5041571;28;20057;-69
2022/08/27 08:43:50;;;;;;;5.70;1.05;;;19.00;99.90;;;;;;5044042;28;20068;-69
2022/08/27 08:46:36;;;;;;;3.38;1.00;;;18.90;99.90;;;;;;4978474;28;20047;-70
2022/08/27 08:49:31;;;;;;;5.45;1.38;;;18.90;99.90;;;;;;4968116;28;20054;-70
2022/08/27 08:52:25;;;;;;;5.45;1.15;;;18.90;99.90;;;;;;5030091;28;20056;-69
2022/08/27 08:54:54;;;;;;;6.70;1.10;;;18.90;99.90;;;;;;5040673;28;20499;-70
2022/08/27 08:57:25;;;;;;;7.88;1.17;;;19.00;99.90;;;;;;5020564;28;20056;-69
2022/08/27 09:00:00;;;;;;;;;;;19.00;99.90;;;;;;5041000;28;20037;-70
2022/08/27 09:02:26;;;;;;;9.10;1.30;;;19.00;99.90;;;;;;5041386;28;19982;-69
2022/08/27 09:04:52;;;;;;;10.27;1.45;;;19.00;99.90;;;;;;5039660;28;20571;-69
2022/08/27 09:07:25;;;;;;;6.57;1.05;;;19.10;99.90;;;;;;5025887;28;20041;-69
2022/08/27 09:10:10;;;;;;;6.70;1.10;;;19.10;99.90;;;;;;5044727;28;20049;-69
2022/08/27 09:12:36;;;;;;;6.10;1.52;;;19.10;99.90;;;;;;5037537;28;20060;-70
2022/08/27 09:15:13;;;;;;;6.82;1.50;;;19.10;99.90;;;;;;5038946;28;20049;-69
2022/08/27 09:17:40;;;;;;;6.28;0.93;;;19.20;99.90;;;;;;5016682;28;20053;-69
2022/08/27 09:20:08;;;;;;;5.20;0.95;;;19.10;99.90;;;;;;5022050;28;20411;-70
2022/08/27 09:22:55;;;;;;;5.90;1.10;;;19.20;99.90;;;;;;5038921;28;20048;-70
2022/08/27 09:25:36;;;;;;;4.13;0.90;;;19.10;99.90;;;;;;5039240;28;20049;-70
2022/08/27 09:29:14;;;;;;;5.38;1.10;;;19.20;99.90;;;;;;5018229;28;20045;-69
2022/08/27 09:30:54;;;;;;;6.05;0.80;;;19.10;99.90;;;;;;5041918;28;20049;-69
2022/08/27 09:33:21;;;;;;;6.05;1.15;;;19.20;99.90;;;;;;5038377;28;20041;-69
2022/08/27 09:35:47;;;;;;;4.63;1.02;;;19.20;99.90;;;;;;5038620;28;20442;-69
2022/08/27 09:38:31;;;;;;;7.63;1.25;;;19.10;99.90;;;;;;5024857;28;20041;-69
2022/08/27 09:41:05;;;;;;;4.18;0.88;;;19.20;99.90;;;;;;5040764;28;20045;-68
2022/08/27 09:43:31;;;;;;;6.85;0.98;;;19.20;99.90;;;;;;5042004;28;20497;-69
2022/08/27 09:46:13;;;;;;;5.82;1.13;;;19.40;99.90;;;;;;5037658;28;20134;-69
2022/08/27 09:48:39;;;;;;;7.47;1.40;;;19.70;99.90;;;;;;5035971;28;20049;-69
2022/08/27 09:51:15;;;;;;;3.58;0.98;;;19.70;99.90;;;;;;5043145;28;20045;-68
2022/08/27 09:54:03;;;;;;;6.07;0.90;;;19.60;99.90;;;;;;5038642;28;20060;-68
2022/08/27 09:56:35;;;;;;;5.70;1.02;;;19.50;99.90;;;;;;5027429;28;20046;-69
2022/08/27 09:59:09;;;;;;;5.95;1.00;;;19.60;99.90;;;;;;5035912;28;20080;-69
2022/08/27 10:01:48;;;;;;;3.53;0.70;;;19.70;99.90;;;;;;5027538;28;20045;-69
2022/08/27 10:04:22;;;;;;;4.57;1.00;;;19.90;99.90;;;;;;5041946;28;20095;-68
2022/08/27 10:06:49;;;;;;;6.95;0.88;;;20.00;99.90;;;;;;5028946;28;20086;-69
2022/08/27 10:09:18;;;;;;;5.80;0.93;;;20.00;99.90;;;;;;5023354;28;20052;-70
2022/08/27 10:12:10;;;;;;;7.05;1.00;;;19.90;99.90;;;;;;5046599;28;20127;-69
2022/08/27 10:15:02;;;;;;;;;;;20.20;99.90;;;;;;5044675;28;20393;-69
2022/08/27 10:17:46;;;;;;;3.80;0.82;;;20.20;99.90;;;;;;5025522;28;19979;-69
2022/08/27 10:20:11;;;;;;;6.10;1.10;;;20.40;99.90;;;;;;5044925;28;20131;-68
2022/08/27 10:23:11;;;;;;;6.18;1.05;;;20.50;99.90;;;;;;5041528;28;20139;-68
2022/08/27 10:26:07;;;;;;;3.78;0.90;;;20.50;99.90;;;;;;5040802;28;20040;-68
2022/08/27 10:28:57;;;;;;;4.85;0.70;;;20.60;99.90;;;;;;5028081;28;20496;-69
2022/08/27 10:31:41;;;;;;;5.28;0.80;;;20.80;99.90;;;;;;5040877;28;20072;-68
2022/08/27 10:34:13;;;;;;;4.22;1.00;;;20.80;99.90;;;;;;5039928;28;20110;-69
2022/08/27 10:36:53;;;;;;;8.50;1.10;;;20.80;99.90;;;;;;5023670;28;20084;-68
2022/08/27 10:39:19;;;;;;;4.22;0.95;;;20.60;99.90;;;;;;5041446;28;20041;-69
2022/08/27 10:41:53;;;;;;;7.43;1.08;;;20.30;99.90;;;;;;5041787;28;20068;-69
2022/08/27 10:44:38;;;;;;;5.60;0.90;;;20.30;99.90;;;;;;5042050;28;20512;-69
2022/08/27 10:47:31;;;;;;;5.40;0.75;;;20.10;99.90;;;;;;5025830;28;20049;-67
2022/08/27 10:50:00;;;;;;;5.05;0.63;;;20.00;99.90;;;;;;5043586;28;20049;-68
2022/08/27 10:52:28;;;;;;;6.80;1.10;;;20.10;99.90;;;;;;5040529;28;20045;-68
2022/08/27 10:55:00;;;;;;;6.28;0.80;;;20.20;99.90;;;;;;5039909;28;20129;-70
2022/08/27 10:57:45;;;;;;;4.35;0.60;;;20.30;99.90;;;;;;5022098;28;20080;-67
2022/08/27 11:00:18;;;;;;;5.20;0.63;;;20.50;99.90;;;;;;5043477;28;20053;-71
2022/08/27 11:02:53;;;;;;;3.08;0.60;;;20.70;99.90;;;;;;5043775;28;20159;-70
2022/08/27 11:05:35;;;;;;;4.10;0.80;;;20.70;99.90;;;;;;5042343;28;20748;-68
2022/08/27 11:08:19;;;;;;;3.35;0.60;;;20.80;99.90;;;;;;5025853;28;20138;-68
2022/08/27 11:10:53;;;;;;;6.68;0.80;;;20.90;99.90;;;;;;5041492;28;20118;-69
2022/08/27 11:13:32;;;;;;;4.13;0.80;;;20.90;99.90;;;;;;5041559;28;20122;-69
2022/08/27 11:16:01;;;;;;;4.03;0.68;;;20.90;99.90;;;;;;5045744;28;20484;-69
2022/08/27 11:18:59;;;;;;;3.58;0.77;;;20.80;99.90;;;;;;5026250;28;20075;-68
2022/08/27 11:21:46;;;;;;;6.50;1.00;;;20.70;99.90;;;;;;5043341;28;20045;-68
2022/08/27 11:24:34;;;;;;;5.35;0.90;;;20.60;99.90;;;;;;5042288;28;20048;-68
2022/08/27 11:27:04;;;;;;;6.88;0.65;;;20.80;99.90;;;;;;5028360;28;20385;-69
2022/08/27 11:29:36;;;;;;;5.25;1.13;;;21.00;99.90;;;;;;5045392;28;20044;-68
2022/08/27 11:32:17;;;;;;;4.57;1.00;;;20.90;99.90;;;;;;5042393;28;20041;-69
2022/08/27 11:34:46;;;;;;;;;;;20.90;99.90;;;;;;5053840;28;20045;-70
2022/08/27 11:37:18;;;;;;;6.95;0.77;;;20.70;99.90;;;;;;5022808;28;19925;-68
2022/08/27 11:40:18;;;;;;;4.95;0.73;;;20.60;99.90;;;;;;5038926;28;20448;-68
2022/08/27 11:42:50;;;;;;;4.72;0.80;;;20.50;99.90;;;;;;5039450;28;20138;-68
2022/08/27 11:45:37;;;;;;;5.30;0.98;;;20.40;99.90;;;;;;5040434;28;20156;-69
2022/08/27 11:48:17;;;;;;;6.25;0.95;;;20.40;99.90;;;;;;5022693;28;20046;-71
2022/08/27 11:50:53;;;;;;;4.77;0.90;;;20.40;99.90;;;;;;5040914;28;20119;-69
2022/08/27 11:53:33;;;;;;;6.40;0.90;;;20.50;99.90;;;;;;5039127;28;20488;-68
2022/08/27 11:56:15;;;;;;;3.83;0.95;;;20.70;99.90;;;;;;5043129;28;20037;-69
2022/08/27 11:58:43;;;;;;;4.32;0.82;;;20.60;99.90;;;;;;5034389;28;20102;-69
2022/08/27 12:01:35;;;;;;;6.82;1.10;;;20.50;99.90;;;;;;5025515;28;20400;-68
2022/08/27 12:04:07;;;;;;;5.10;0.93;;;20.50;99.90;;;;;;5034367;28;20047;-69
2022/08/27 12:06:49;;;;;;;6.97;0.65;;;20.70;99.90;;;;;;5027096;28;20055;-68
2022/08/27 12:09:21;;;;;;;3.50;1.00;;;20.60;99.90;;;;;;5037596;28;20056;-69
2022/08/27 12:12:08;;;;;;;5.93;0.80;;;20.60;99.90;;;;;;5040370;28;20049;-69
2022/08/27 12:14:58;;;;;;;4.82;0.68;;;20.60;99.90;;;;;;5038288;28;20447;-69
2022/08/27 12:17:52;;;;;;;4.68;0.90;;;20.70;99.90;;;;;;5017702;28;20534;-68
2022/08/27 12:20:23;;;;;;;7.03;0.80;;;20.40;99.90;;;;;;5038680;28;20524;-68
2022/08/27 12:23:41;;;;;;;2.80;0.80;;;20.50;99.90;;;;;;5042784;28;20170;-69
2022/08/27 12:26:42;;;;;;;6.07;0.80;;;20.50;99.90;;;;;;4962652;28;20524;-70
2022/08/27 12:29:30;;;;;;;4.50;0.50;;;20.50;99.90;;;;;;5034034;28;20661;-68
2022/08/27 12:32:32;;;;;;;3.58;0.60;;;20.50;99.90;;;;;;5044293;28;20048;-68
2022/08/27 12:35:09;;;;;;;5.40;0.73;;;20.50;99.90;;;;;;5041048;28;20051;-68
2022/08/27 12:37:44;;;;;;;2.60;0.55;;;20.60;99.90;;;;;;5023877;28;20037;-67
2022/08/27 12:40:17;;;;;;;3.05;0.60;;;20.60;99.90;;;;;;5040580;28;20048;-70
2022/08/27 12:42:43;;;;;;;6.82;0.90;;;20.70;99.90;;;;;;5041312;28;20048;-69
2022/08/27 12:45:21;;;;;;;8.35;1.00;;;20.80;99.90;;;;;;5038384;28;20372;-69
2022/08/27 12:47:47;;;;;;;5.75;0.77;;;20.80;99.90;;;;;;5023132;28;20045;-68
2022/08/27 12:50:22;;;;;;;3.88;0.70;;;20.50;99.90;;;;;;5039841;28;20156;-69
2022/08/27 12:53:08;;;;;;;4.20;0.80;;;20.60;99.90;;;;;;5040678;28;20051;-68
2022/08/27 12:56:02;;;;;;;6.97;1.25;;;20.80;99.90;;;;;;5039799;28;20157;-68
2022/08/27 12:58:51;;;;;;;9.88;1.10;;;20.90;99.90;;;;;;5022499;28;20073;-69
2022/08/27 13:01:33;;;;;;;6.13;1.27;;;21.20;99.90;;;;;;5041134;28;20179;-69
2022/08/27 13:04:00;;;;;;;4.78;1.08;;;21.20;99.90;;;;;;5040932;28;20041;-72
2022/08/27 13:06:27;;;;;;;5.38;1.45;;;21.20;99.90;;;;;;5022364;28;20602;-68
2022/08/27 13:08:55;;;;;;;5.70;1.23;;;21.10;99.90;;;;;;5032830;28;20111;-70
2022/08/27 13:11:27;;;;;;;5.28;1.20;;;21.00;99.90;;;;;;5043564;28;20075;-69